Time;durP1;ratioP1;P1;durP2;ratioP2;P2;SDS_P1;SDS_P2;PMS_P1;PMS_P2;Temp;Humidity;BMP_temperature;BMP_pressure;BME280_temperature;BME280_humidity;BME280_pressure;Samples;Min_cycle;Max_cycle;Signal;HPM_P1;HPM_P2
2021/01/24 00:01:08;;;;;;;3.00;1.70;;;;;;;7.59;58.04;92586.53;5091997;28;20015;-76
2021/01/24 00:03:33;;;;;;;8.73;3.55;;;;;;;7.74;59.48;92599.19;5107483;27;20027;-76
2021/01/24 00:05:58;;;;;;;10.40;5.38;;;;;;;7.78;60.30;92616.00;5120130;27;20151;-76
2021/01/24 00:08:24;;;;;;;17.50;7.88;;;;;;;7.81;60.61;92611.94;5111820;28;20441;-76
2021/01/24 00:10:49;;;;;;;13.18;6.22;;;;;;;7.50;61.46;92612.34;5117602;28;20359;-77
2021/01/24 00:13:15;;;;;;;14.23;6.80;;;;;;;7.54;61.60;92615.91;5113194;27;20096;-76
2021/01/24 00:15:40;;;;;;;15.60;6.82;;;;;;;7.64;61.59;92626.13;5123072;27;20502;-76
2021/01/24 00:18:05;;;;;;;15.30;6.80;;;;;;;7.60;61.33;92617.25;5118771;27;20038;-76
2021/01/24 00:20:31;;;;;;;12.40;5.45;;;;;;;7.57;60.52;92604.63;5114651;28;20471;-76
2021/01/24 00:22:56;;;;;;;14.15;5.85;;;;;;;7.60;60.79;92610.06;5124776;27;20023;-76
2021/01/24 00:25:22;;;;;;;11.30;6.63;;;;;;;7.64;61.33;92615.50;5107667;27;20449;-77
2021/01/24 00:27:47;;;;;;;13.02;6.15;;;;;;;7.66;61.25;92628.44;5098543;28;20027;-76
2021/01/24 00:30:14;;;;;;;12.65;6.38;;;;;;;7.60;61.53;92618.03;5118108;27;20047;-76
2021/01/24 00:32:39;;;;;;;12.25;6.30;;;;;;;7.64;61.00;92621.59;5137301;27;20473;-76
2021/01/24 00:35:10;;;;;;;10.82;5.43;;;;;;;7.62;61.56;92618.47;5117144;27;20153;-76
2021/01/24 00:37:35;;;;;;;10.18;5.10;;;;;;;7.54;61.71;92619.31;5131218;27;20023;-76
2021/01/24 00:40:03;;;;;;;16.35;6.25;;;;;;;7.55;62.13;92612.13;5101062;27;20479;-77
2021/01/24 00:42:28;;;;;;;13.43;6.63;;;;;;;7.56;62.28;92629.59;5098306;27;20060;-76
2021/01/24 00:44:54;;;;;;;11.98;6.13;;;;;;;7.35;61.98;92630.38;5098554;28;20077;-76
2021/01/24 00:47:20;;;;;;;9.38;3.75;;;;;;;7.41;60.70;92634.41;5106482;27;20043;-76
2021/01/24 00:49:45;;;;;;;6.60;3.63;;;;;;;7.44;60.25;92609.88;5116813;27;20383;-76
2021/01/24 00:52:11;;;;;;;7.35;1.90;;;;;;;7.57;58.52;92610.72;5116787;27;20027;-76
2021/01/24 00:54:37;;;;;;;11.02;2.55;;;;;;;7.70;58.89;92622.16;5135905;27;20026;-76
2021/01/24 00:57:02;;;;;;;3.30;1.98;;;;;;;7.77;57.94;92634.91;5137191;27;20027;-76
2021/01/24 00:59:28;;;;;;;4.03;1.25;;;;;;;7.84;57.15;92612.06;5124947;27;20016;-76
2021/01/24 01:01:53;;;;;;;3.70;1.05;;;;;;;7.98;57.62;92589.78;5123664;27;20019;-76
2021/01/24 01:04:19;;;;;;;0.77;0.50;;;;;;;8.00;56.61;92603.50;5136955;27;20410;-76
2021/01/24 01:06:44;;;;;;;0.70;0.50;;;;;;;8.04;57.13;92601.75;5123143;27;20026;-76
2021/01/24 01:09:09;;;;;;;3.00;0.88;;;;;;;8.12;56.50;92598.22;5134061;27;20034;-76
2021/01/24 01:11:35;;;;;;;2.90;1.33;;;;;;;8.22;56.28;92597.00;5128486;27;20030;-76
2021/01/24 01:14:00;;;;;;;1.67;0.77;;;;;;;8.28;55.45;92589.63;5109920;27;20490;-76
2021/01/24 01:16:26;;;;;;;1.38;0.70;;;;;;;8.39;54.83;92602.16;5133928;27;20023;-76
2021/01/24 01:18:51;;;;;;;1.50;0.88;;;;;;;8.50;54.62;92610.50;5132521;27;20030;-76
2021/01/24 01:21:17;;;;;;;1.02;0.60;;;;;;;8.56;55.22;92609.16;5116361;27;20482;-76
2021/01/24 01:23:42;;;;;;;1.92;0.80;;;;;;;8.68;56.00;92597.00;5109287;27;20114;-76
2021/01/24 01:26:08;;;;;;;1.15;0.55;;;;;;;8.75;56.79;92598.03;5133801;27;20038;-76
2021/01/24 01:28:33;;;;;;;1.45;0.73;;;;;;;8.67;59.89;92612.19;5105076;27;20159;-76
2021/01/24 01:30:59;;;;;;;4.50;1.10;;;;;;;8.68;60.15;92597.78;5100192;28;20023;-76
2021/01/24 01:33:24;;;;;;;2.28;0.90;;;;;;;8.65;60.66;92585.19;5112888;28;20031;-76
2021/01/24 01:35:49;;;;;;;1.75;1.08;;;;;;;8.63;59.76;92576.78;5123298;27;20106;-76
2021/01/24 01:38:15;;;;;;;3.03;0.60;;;;;;;8.49;58.73;92585.06;5129982;27;20023;-76
2021/01/24 01:40:40;;;;;;;1.75;0.68;;;;;;;8.47;58.83;92591.78;5131887;27;20015;-76
2021/01/24 01:43:05;;;;;;;1.67;0.85;;;;;;;8.50;59.54;92604.41;5115000;27;20481;-76
2021/01/24 01:45:31;;;;;;;2.80;0.80;;;;;;;8.50;58.69;92597.22;5124896;27;20102;-76
2021/01/24 01:47:57;;;;;;;3.42;0.80;;;;;;;8.36;60.33;92572.81;5123296;27;20111;-76
2021/01/24 01:50:23;;;;;;;1.63;0.50;;;;;;;8.40;57.20;92589.63;5114740;27;20023;-76
2021/01/24 01:52:49;;;;;;;1.73;0.80;;;;;;;8.21;58.84;92582.97;5103670;28;20024;-76
2021/01/24 01:55:14;;;;;;;2.15;0.82;;;;;;;8.23;59.28;92601.22;5102993;28;20026;-76
2021/01/24 01:57:40;;;;;;;2.88;0.90;;;;;;;8.24;58.80;92600.91;5112487;28;20023;-76
2021/01/24 02:00:07;;;;;;;1.38;0.70;;;;;;;8.20;56.41;92591.25;5112331;28;20094;-76
2021/01/24 02:02:40;;;;;;;5.53;0.73;;;;;;;8.18;55.86;92599.56;5112474;28;20031;-76
2021/01/24 02:05:31;;;;;;;1.10;0.35;;;;;;;8.13;53.24;92586.50;5093262;28;20030;-76
2021/01/24 02:08:21;;;;;;;0.50;0.30;;;;;;;8.06;52.82;92591.56;5113584;27;20028;-76
2021/01/24 02:10:55;;;;;;;1.52;0.50;;;;;;;8.02;53.41;92607.38;5107098;27;20026;-77
2021/01/24 02:13:45;;;;;;;0.60;0.45;;;;;;;8.06;53.67;92612.81;5102280;27;20508;-76
2021/01/24 02:16:14;;;;;;;0.30;0.30;;;;;;;8.07;53.54;92609.03;5114222;27;20481;-76
2021/01/24 02:18:42;;;;;;;1.27;0.70;;;;;;;8.17;53.43;92605.97;5115954;27;20038;-76
2021/01/24 02:21:34;;;;;;;0.50;0.32;;;;;;;8.13;54.24;92606.97;5104329;27;20076;-77
2021/01/24 02:24:04;;;;;;;3.22;0.90;;;;;;;8.18;54.44;92612.84;5094707;28;20028;-76
2021/01/24 02:26:35;;;;;;;2.50;0.90;;;;;;;8.19;55.46;92603.75;5093691;28;20038;-77
2021/01/24 02:29:00;;;;;;;2.77;0.93;;;;;;;8.25;54.25;92607.00;5121060;27;20080;-76
2021/01/24 02:31:27;;;;;;;1.88;0.80;;;;;;;8.26;53.41;92605.09;5112497;27;20031;-77
2021/01/24 02:33:55;;;;;;;1.55;0.57;;;;;;;8.29;53.24;92593.84;5114574;27;20085;-76
2021/01/24 02:36:21;;;;;;;3.72;0.70;;;;;;;8.33;53.69;92584.13;5092308;28;20092;-76
2021/01/24 02:38:47;;;;;;;2.53;0.82;;;;;;;8.37;53.99;92599.03;5093600;28;20118;-77
2021/01/24 02:41:15;;;;;;;1.35;0.80;;;;;;;8.40;53.83;92594.94;5121625;27;20019;-77
2021/01/24 02:43:45;;;;;;;4.47;1.00;;;;;;;8.29;52.67;92591.19;5126230;27;20088;-76
2021/01/24 02:46:13;;;;;;;2.13;1.00;;;;;;;8.32;52.93;92591.28;5105066;27;20106;-77
2021/01/24 02:48:40;;;;;;;3.65;1.65;;;;;;;8.21;54.61;92596.25;5123884;27;20205;-76
2021/01/24 02:51:06;;;;;;;3.22;1.60;;;;;;;8.20;54.84;92600.03;5094679;28;20039;-76
2021/01/24 02:53:33;;;;;;;3.72;1.02;;;;;;;8.13;53.15;92602.41;5107001;27;20393;-76
2021/01/24 02:56:01;;;;;;;1.50;0.68;;;;;;;8.05;50.73;92600.63;5095922;28;20470;-76
2021/01/24 02:58:29;;;;;;;5.63;0.80;;;;;;;8.10;50.19;92603.09;5111550;28;20047;-76
2021/01/24 03:00:55;;;;;;;0.98;0.70;;;;;;;8.19;50.53;92605.66;5093148;28;20023;-77
2021/01/24 03:03:20;;;;;;;2.63;0.70;;;;;;;8.17;51.00;92571.47;5103249;27;20023;-76
2021/01/24 03:05:46;;;;;;;0.30;0.30;;;;;;;7.94;50.84;92568.44;5132456;27;20023;-76
2021/01/24 03:08:12;;;;;;;1.92;0.50;;;;;;;7.89;51.07;92554.59;5130012;27;20027;-76
2021/01/24 03:10:37;;;;;;;1.88;0.50;;;;;;;7.90;49.44;92550.84;5119790;27;20030;-76
2021/01/24 03:13:10;;;;;;;0.50;0.40;;;;;;;7.91;50.75;92553.16;5120115;27;20039;-76
2021/01/24 03:15:36;;;;;;;1.38;0.73;;;;;;;7.91;49.39;92555.03;5112082;27;20015;-76
2021/01/24 03:18:04;;;;;;;2.78;1.00;;;;;;;7.96;50.64;92546.88;5123209;27;20529;-76
2021/01/24 03:20:34;;;;;;;0.77;0.50;;;;;;;7.88;48.58;92553.06;5111215;28;20028;-75
2021/01/24 03:23:02;;;;;;;0.73;0.50;;;;;;;7.89;48.35;92563.31;5092775;28;20032;-76
2021/01/24 03:25:28;;;;;;;0.90;0.40;;;;;;;7.96;48.70;92573.41;5122506;27;20079;-75
2021/01/24 03:27:54;;;;;;;1.65;0.70;;;;;;;7.94;49.30;92570.31;5124811;27;20092;-75
2021/01/24 03:30:19;;;;;;;2.90;0.93;;;;;;;7.94;49.88;92557.06;5109641;27;20463;-75
2021/01/24 03:32:45;;;;;;;0.77;0.60;;;;;;;7.88;49.21;92551.16;5100500;28;20034;-75
2021/01/24 03:35:11;;;;;;;5.35;0.80;;;;;;;7.81;48.25;92561.53;5110699;28;20038;-75
2021/01/24 03:37:36;;;;;;;0.55;0.35;;;;;;;7.66;47.49;92580.72;5092333;28;20114;-75
2021/01/24 03:40:02;;;;;;;3.47;1.75;;;;;;;7.55;47.31;92580.31;5112517;28;20111;-75
2021/01/24 03:42:28;;;;;;;1.17;0.60;;;;;;;7.49;47.86;92602.81;5094619;27;20070;-75
2021/01/24 03:44:54;;;;;;;0.68;0.43;;;;;;;7.47;48.01;92594.41;5098325;28;20118;-75
2021/01/24 03:47:20;;;;;;;3.05;0.50;;;;;;;7.46;48.25;92588.34;5109975;28;20112;-75
2021/01/24 03:49:45;;;;;;;0.88;0.50;;;;;;;7.46;48.85;92592.88;5092088;28;20031;-75
2021/01/24 03:52:10;;;;;;;1.83;0.40;;;;;;;7.27;47.94;92566.84;5100420;27;20508;-75
2021/01/24 03:54:36;;;;;;;1.05;0.38;;;;;;;7.28;48.03;92585.03;5099456;28;20079;-75
2021/01/24 03:57:01;;;;;;;1.42;0.43;;;;;;;7.31;48.51;92592.38;5119163;27;20022;-75
2021/01/24 03:59:27;;;;;;;1.35;0.47;;;;;;;7.34;48.17;92590.94;5127655;27;20027;-75
2021/01/24 04:01:52;;;;;;;2.15;0.65;;;;;;;7.25;47.39;92598.97;5115437;27;20084;-75
2021/01/24 04:04:18;;;;;;;1.48;0.43;;;;;;;7.28;47.55;92606.25;5130858;27;20027;-75
2021/01/24 04:06:43;;;;;;;0.90;0.40;;;;;;;7.29;47.51;92596.44;5131085;27;20394;-75
2021/01/24 04:09:08;;;;;;;3.97;0.57;;;;;;;7.22;48.30;92602.25;5101213;28;20163;-75
2021/01/24 04:11:34;;;;;;;1.52;0.47;;;;;;;7.20;48.82;92607.09;5118593;28;20034;-75
2021/01/24 04:13:59;;;;;;;2.40;0.60;;;;;;;7.12;48.96;92600.72;5091996;28;20085;-75
2021/01/24 04:16:25;;;;;;;5.05;0.50;;;;;;;7.08;48.86;92591.88;5114554;28;20510;-75
2021/01/24 04:18:50;;;;;;;1.92;0.50;;;;;;;7.03;48.83;92584.91;5110159;28;20047;-75
2021/01/24 04:21:15;;;;;;;2.78;0.77;;;;;;;7.05;48.79;92578.53;5126139;27;20023;-75
2021/01/24 04:23:41;;;;;;;1.75;0.93;;;;;;;6.99;47.72;92583.22;5118286;28;20035;-75
2021/01/24 04:26:06;;;;;;;1.25;0.60;;;;;;;6.97;48.32;92599.44;5110177;28;20031;-75
2021/01/24 04:28:32;;;;;;;0.50;0.50;;;;;;;6.99;48.28;92597.25;5126383;28;20110;-75
2021/01/24 04:30:57;;;;;;;1.73;0.73;;;;;;;6.99;46.95;92607.06;5130286;28;20135;-75
2021/01/24 04:33:22;;;;;;;1.35;0.40;;;;;;;6.99;48.17;92593.81;5130503;28;20034;-75
2021/01/24 04:35:48;;;;;;;1.98;0.50;;;;;;;7.03;48.99;92587.56;5094972;28;20438;-75
2021/01/24 04:38:13;;;;;;;4.68;0.98;;;;;;;7.05;49.11;92599.72;5101074;28;20033;-75
2021/01/24 04:40:39;;;;;;;3.13;0.50;;;;;;;7.02;48.17;92604.56;5109614;28;20028;-75
2021/01/24 04:43:05;;;;;;;0.95;0.50;;;;;;;7.09;48.07;92608.56;5108381;28;20023;-75
2021/01/24 04:45:31;;;;;;;0.68;0.45;;;;;;;7.08;48.04;92607.78;5125730;27;20087;-75
2021/01/24 04:47:57;;;;;;;1.05;0.30;;;;;;;7.17;47.35;92613.81;5126336;27;20617;-75
2021/01/24 04:50:25;;;;;;;0.43;0.30;;;;;;;7.21;47.25;92624.56;5108596;28;20131;-75
2021/01/24 04:52:51;;;;;;;2.38;0.80;;;;;;;7.08;51.12;92630.84;5095804;28;20016;-75
2021/01/24 04:55:17;;;;;;;4.10;1.40;;;;;;;7.15;51.48;92625.84;5120602;28;20026;-75
2021/01/24 04:57:42;;;;;;;5.10;1.67;;;;;;;7.11;53.13;92615.09;5128808;28;20438;-75
2021/01/24 05:00:08;;;;;;;5.13;2.20;;;;;;;6.79;55.11;92635.06;5124064;27;20042;-75
2021/01/24 05:02:35;;;;;;;3.20;1.30;;;;;;;6.83;54.74;92642.03;5132863;27;20019;-75
2021/01/24 05:05:01;;;;;;;6.03;1.80;;;;;;;6.74;55.62;92643.97;5095219;28;20083;-75
2021/01/24 05:07:26;;;;;;;4.22;1.95;;;;;;;6.61;55.83;92655.53;5128952;27;20995;-75
2021/01/24 05:09:52;;;;;;;5.43;1.60;;;;;;;6.54;55.55;92634.84;5133626;27;20061;-76
2021/01/24 05:12:19;;;;;;;6.05;1.45;;;;;;;6.54;55.11;92648.06;5132416;27;20047;-75
2021/01/24 05:14:48;;;;;;;2.75;1.23;;;;;;;6.51;55.00;92656.63;5131079;27;20031;-75
2021/01/24 05:17:14;;;;;;;6.80;3.25;;;;;;;6.43;55.38;92649.50;5115161;27;20027;-75
2021/01/24 05:19:40;;;;;;;4.57;2.15;;;;;;;6.09;56.60;92639.81;5115511;27;20053;-75
2021/01/24 05:22:06;;;;;;;3.70;1.90;;;;;;;6.05;56.92;92642.28;5124808;27;20504;-75
2021/01/24 05:24:32;;;;;;;4.68;1.60;;;;;;;6.05;56.17;92671.38;5108895;28;20032;-75
2021/01/24 05:27:06;;;;;;;4.07;1.33;;;;;;;6.05;56.26;92633.59;5123587;27;20091;-76
2021/01/24 05:29:35;;;;;;;4.00;1.73;;;;;;;6.08;56.22;92649.59;5102464;27;20106;-75
2021/01/24 05:32:01;;;;;;;6.88;1.63;;;;;;;6.03;56.43;92663.00;5114881;27;20114;-75
2021/01/24 05:34:29;;;;;;;2.85;1.10;;;;;;;6.07;56.24;92661.28;5115326;27;20413;-75
2021/01/24 05:36:56;;;;;;;6.60;2.28;;;;;;;6.10;56.05;92668.56;5131849;27;20031;-75
2021/01/24 05:39:22;;;;;;;7.60;4.05;;;;;;;6.09;55.93;92653.03;5118659;27;20028;-75
2021/01/24 05:41:49;;;;;;;10.93;2.95;;;;;;;6.12;56.04;92650.50;5095608;27;20381;-75
2021/01/24 05:44:15;;;;;;;9.52;4.38;;;;;;;6.17;56.00;92653.00;5133296;27;20023;-75
2021/01/24 05:46:42;;;;;;;10.48;3.55;;;;;;;6.17;54.03;92668.13;5126166;27;20054;-75
2021/01/24 05:49:10;;;;;;;5.88;2.35;;;;;;;6.20;52.54;92656.88;5111480;28;20031;-75
2021/01/24 05:51:35;;;;;;;8.68;2.53;;;;;;;6.27;51.94;92665.13;5124382;27;20418;-75
2021/01/24 05:54:01;;;;;;;4.00;1.10;;;;;;;6.35;53.16;92652.94;5094216;28;20126;-75
2021/01/24 05:56:26;;;;;;;6.70;1.00;;;;;;;6.36;51.84;92660.59;5105975;27;20038;-75
2021/01/24 05:58:57;;;;;;;4.75;1.42;;;;;;;6.46;51.74;92671.94;5097645;27;20028;-75
2021/01/24 06:01:24;;;;;;;3.00;1.27;;;;;;;6.45;53.39;92659.78;5113486;27;20019;-76
2021/01/24 06:03:49;;;;;;;3.58;1.58;;;;;;;6.46;52.53;92669.28;5121341;27;20027;-76
2021/01/24 06:06:15;;;;;;;4.40;1.77;;;;;;;6.51;54.21;92674.41;5103253;28;20049;-76
2021/01/24 06:08:40;;;;;;;4.88;1.75;;;;;;;6.51;54.88;92696.34;5112337;28;20031;-76
2021/01/24 06:11:07;;;;;;;4.22;1.77;;;;;;;6.38;54.93;92689.38;5118985;27;20023;-76
2021/01/24 06:13:34;;;;;;;4.90;1.70;;;;;;;6.38;55.40;92718.50;5100021;27;20083;-76
2021/01/24 06:16:18;;;;;;;5.07;2.40;;;;;;;6.36;55.41;92705.56;5122766;27;20035;-76
2021/01/24 06:18:56;;;;;;;7.00;2.30;;;;;;;6.28;54.45;92713.53;5093931;28;20034;-76
2021/01/24 06:21:45;;;;;;;5.57;2.30;;;;;;;6.20;55.00;92715.88;5103784;27;20078;-76
2021/01/24 06:24:18;;;;;;;4.95;2.13;;;;;;;6.29;55.41;92712.44;5123876;27;20072;-76
2021/01/24 06:26:46;;;;;;;6.90;2.42;;;;;;;6.33;55.70;92719.44;5127204;27;20016;-76
2021/01/24 06:29:12;;;;;;;6.10;2.30;;;;;;;6.37;55.67;92733.59;5093249;28;20032;-76
2021/01/24 06:31:46;;;;;;;6.45;2.42;;;;;;;6.45;55.20;92720.66;5116477;27;20106;-76
2021/01/24 06:34:11;;;;;;;5.85;2.38;;;;;;;6.46;55.69;92738.13;5129407;27;20468;-76
2021/01/24 06:36:38;;;;;;;6.55;3.28;;;;;;;6.47;56.10;92748.38;5108524;28;20035;-76
2021/01/24 06:39:05;;;;;;;13.30;3.00;;;;;;;6.53;56.24;92749.75;5102617;27;20486;-76
2021/01/24 06:42:00;;;;;;;7.40;3.40;;;;;;;6.58;56.41;92767.38;5126249;27;20482;-76
2021/01/24 06:44:37;;;;;;;4.05;2.45;;;;;;;6.63;56.24;92764.53;5079427;27;20585;-76
2021/01/24 06:47:08;;;;;;;4.72;2.45;;;;;;;6.60;56.31;92768.59;5113788;27;20042;-76
2021/01/24 06:49:40;;;;;;;6.57;2.83;;;;;;;6.62;56.07;92757.69;5132175;27;20038;-76
2021/01/24 06:52:20;;;;;;;4.38;2.75;;;;;;;6.74;55.97;92751.75;5123063;27;20431;-76
2021/01/24 06:54:46;;;;;;;7.85;3.03;;;;;;;6.79;55.33;92775.41;5107442;27;20027;-76
2021/01/24 06:57:12;;;;;;;7.50;3.15;;;;;;;6.82;54.62;92772.16;5130607;27;20019;-76
2021/01/24 06:59:38;;;;;;;6.22;3.20;;;;;;;6.90;54.35;92774.00;5116183;27;20031;-76
2021/01/24 07:02:24;;;;;;;5.45;2.85;;;;;;;6.98;54.22;92786.44;5113446;27;20025;-76
2021/01/24 07:05:12;;;;;;;4.55;2.50;;;;;;;7.01;53.81;92785.78;5116147;27;20050;-76
2021/01/24 07:07:40;;;;;;;8.13;2.83;;;;;;;7.08;53.55;92789.81;5091826;28;20474;-76
2021/01/24 07:10:08;;;;;;;6.75;3.28;;;;;;;7.12;53.33;92785.44;5111359;28;20047;-75
2021/01/24 07:12:42;;;;;;;7.63;3.60;;;;;;;7.18;53.18;92792.13;5115390;27;20413;-75
2021/01/24 07:15:19;;;;;;;12.77;3.42;;;;;;;7.21;53.55;92799.47;5113382;27;20076;-76
2021/01/24 07:17:53;;;;;;;8.75;3.05;;;;;;;7.23;53.96;92789.31;5111232;28;20036;-76
2021/01/24 07:20:20;;;;;;;3.15;1.58;;;;;;;7.30;53.64;92775.56;5123648;27;20018;-75
2021/01/24 07:22:46;;;;;;;6.85;2.30;;;;;;;7.30;53.74;92789.59;5111594;27;20055;-76
2021/01/24 07:25:11;;;;;;;1.27;0.60;;;;;;;7.25;50.57;92778.41;5124770;27;20078;-76
2021/01/24 07:27:37;;;;;;;5.93;2.08;;;;;;;7.23;52.05;92794.63;5119345;27;20114;-76
2021/01/24 07:30:06;;;;;;;8.02;2.45;;;;;;;7.22;52.95;92793.06;5122548;27;20398;-76
2021/01/24 07:32:31;;;;;;;9.32;1.98;;;;;;;7.10;52.97;92769.84;5102389;28;20027;-76
2021/01/24 07:34:57;;;;;;;6.72;1.92;;;;;;;6.91;50.65;92774.78;5110458;28;20038;-70
2021/01/24 07:37:24;;;;;;;5.57;1.13;;;;;;;6.94;49.95;92780.22;5093751;28;20024;-70
2021/01/24 07:39:51;;;;;;;3.05;1.58;;;;;;;7.04;50.98;92773.78;5110316;28;20049;-71
2021/01/24 07:42:17;;;;;;;5.57;2.38;;;;;;;7.10;52.59;92785.75;5120389;27;20023;-71
2021/01/24 07:44:44;;;;;;;13.88;6.78;;;;;;;7.18;53.62;92778.88;5110536;28;20075;-71
2021/01/24 07:47:11;;;;;;;7.93;3.97;;;;;;;7.18;54.03;92776.22;5110852;27;20550;-71
2021/01/24 07:49:37;;;;;;;8.93;3.20;;;;;;;7.22;54.05;92793.06;5130814;27;20081;-70
2021/01/24 07:52:07;;;;;;;6.40;2.88;;;;;;;7.20;54.29;92792.59;5111048;27;20016;-71
2021/01/24 07:54:34;;;;;;;7.35;2.85;;;;;;;7.25;54.29;92800.38;5091835;28;20072;-71
2021/01/24 07:57:00;;;;;;;5.88;2.47;;;;;;;7.31;54.30;92811.59;5109928;28;20172;-71
2021/01/24 07:59:26;;;;;;;9.00;2.63;;;;;;;7.36;54.47;92811.41;5113001;27;20114;-71
2021/01/24 08:01:53;;;;;;;6.57;2.72;;;;;;;7.43;54.36;92827.59;5130116;27;20057;-71
2021/01/24 08:04:22;;;;;;;4.05;2.00;;;;;;;7.50;53.32;92832.41;5128741;27;21916;-71
2021/01/24 08:06:49;;;;;;;5.63;2.65;;;;;;;7.59;53.24;92841.09;5094161;28;20072;-71
2021/01/24 08:09:16;;;;;;;5.53;2.22;;;;;;;7.67;53.24;92850.13;5091755;28;20023;-71
2021/01/24 08:11:41;;;;;;;11.48;2.33;;;;;;;7.70;53.36;92850.25;5097255;28;20402;-71
2021/01/24 08:14:07;;;;;;;7.20;2.92;;;;;;;7.84;53.28;92847.38;5111855;28;20027;-73
2021/01/24 08:16:38;;;;;;;6.30;2.97;;;;;;;7.94;53.33;92839.06;5112291;28;20019;-71
2021/01/24 08:19:06;;;;;;;6.10;2.78;;;;;;;8.06;53.27;92843.69;5112033;28;20661;-72
2021/01/24 08:21:34;;;;;;;7.70;3.20;;;;;;;8.15;53.13;92852.34;5104968;28;20012;-72
2021/01/24 08:24:01;;;;;;;12.48;3.75;;;;;;;8.22;53.20;92868.56;5119001;27;20151;-71
2021/01/24 08:26:27;;;;;;;9.38;3.40;;;;;;;8.33;52.65;92857.56;5107567;28;20039;-71
2021/01/24 08:28:54;;;;;;;12.20;4.53;;;;;;;8.37;53.02;92845.19;5118410;27;20076;-72
2021/01/24 08:31:20;;;;;;;11.98;4.35;;;;;;;8.46;52.74;92839.84;5111486;28;20381;-72
2021/01/24 08:33:48;;;;;;;14.32;3.88;;;;;;;8.54;52.53;92823.06;5125868;27;20077;-71
2021/01/24 08:36:17;;;;;;;10.32;3.78;;;;;;;8.56;52.16;92840.22;5113787;28;20015;-71
2021/01/24 08:38:44;;;;;;;9.20;3.85;;;;;;;8.59;52.24;92836.94;5105598;28;20030;-70
2021/01/24 08:41:10;;;;;;;9.93;3.35;;;;;;;8.62;52.24;92852.22;5106801;27;20122;-71
2021/01/24 08:43:37;;;;;;;11.85;4.55;;;;;;;8.62;52.17;92854.09;5101925;27;20423;-71
2021/01/24 08:46:17;;;;;;;7.20;2.92;;;;;;;8.65;52.25;92842.84;5107513;27;20080;-71
2021/01/24 08:48:43;;;;;;;7.70;3.10;;;;;;;8.67;52.30;92850.47;5115923;27;20118;-71
2021/01/24 08:51:08;;;;;;;7.07;3.10;;;;;;;8.62;52.19;92860.19;5108027;28;20107;-71
2021/01/24 08:53:33;;;;;;;7.60;2.53;;;;;;;8.61;52.32;92839.28;5124824;27;20031;-71
2021/01/24 08:55:59;;;;;;;8.60;3.90;;;;;;;8.64;52.46;92842.03;5132890;27;20051;-71
2021/01/24 08:58:26;;;;;;;11.45;3.53;;;;;;;8.71;52.03;92862.78;5131247;27;20117;-72
2021/01/24 09:01:23;;;;;;;11.55;3.17;;;;;;;8.78;51.74;92862.25;5110834;27;20023;-71
2021/01/24 09:03:49;;;;;;;12.05;2.50;;;;;;;8.78;51.81;92852.41;5056680;28;20070;-70
2021/01/24 09:06:15;;;;;;;9.02;2.95;;;;;;;8.88;51.71;92861.09;5105455;27;20102;-71
2021/01/24 09:08:49;;;;;;;9.02;2.58;;;;;;;8.94;51.83;92863.22;5133835;27;20109;-71
2021/01/24 09:11:15;;;;;;;9.15;3.05;;;;;;;9.03;51.48;92873.75;5115172;27;20456;-71
2021/01/24 09:13:40;;;;;;;9.63;2.00;;;;;;;9.00;50.39;92879.72;5112516;27;20463;-71
2021/01/24 09:16:06;;;;;;;8.43;3.25;;;;;;;9.07;50.58;92887.16;5110887;27;20053;-71
2021/01/24 09:18:32;;;;;;;6.32;2.17;;;;;;;9.05;50.38;92898.13;5102809;28;20088;-71
2021/01/24 09:20:58;;;;;;;6.30;2.20;;;;;;;9.07;50.28;92897.81;5113426;28;20032;-72
2021/01/24 09:23:23;;;;;;;6.43;2.60;;;;;;;9.15;50.92;92859.72;5094764;28;20031;-71
2021/01/24 09:25:49;;;;;;;11.93;2.38;;;;;;;9.12;49.09;92852.41;5100675;27;20507;-71
2021/01/24 09:28:14;;;;;;;5.40;1.98;;;;;;;9.20;49.00;92864.84;5098664;28;20039;-71
2021/01/24 09:30:39;;;;;;;8.93;2.25;;;;;;;9.32;49.30;92832.19;5094264;28;20482;-71
2021/01/24 09:33:05;;;;;;;5.47;1.40;;;;;;;9.33;47.03;92858.44;5102652;27;20042;-70
2021/01/24 09:35:30;;;;;;;3.55;1.58;;;;;;;9.38;46.92;92836.19;5133139;27;20039;-72
2021/01/24 09:37:56;;;;;;;7.43;2.03;;;;;;;9.47;47.29;92817.47;5108542;28;20526;-71
2021/01/24 09:40:21;;;;;;;15.43;2.38;;;;;;;9.54;47.53;92845.06;5104739;27;20027;-71
2021/01/24 09:42:46;;;;;;;22.98;8.88;;;;;;;9.66;47.86;92846.19;5133453;27;20101;-71
2021/01/24 09:45:13;;;;;;;9.75;2.88;;;;;;;9.80;47.25;92851.97;5132559;27;20034;-71
2021/01/24 09:47:39;;;;;;;16.48;2.75;;;;;;;9.92;46.78;92843.22;5114649;27;20106;-71
2021/01/24 09:50:05;;;;;;;6.85;1.83;;;;;;;10.04;46.57;92846.66;5101902;28;20079;-71
2021/01/24 09:52:30;;;;;;;3.53;1.65;;;;;;;10.17;46.15;92839.41;5094200;28;20024;-71
2021/01/24 09:54:55;;;;;;;7.47;1.65;;;;;;;10.27;46.39;92814.22;5115163;27;20035;-71
2021/01/24 09:57:21;;;;;;;4.25;1.20;;;;;;;10.43;43.20;92819.66;5130321;27;20460;-71
2021/01/24 09:59:46;;;;;;;7.35;1.50;;;;;;;10.53;43.91;92813.84;5127299;27;20110;-71
2021/01/24 10:02:11;;;;;;;10.88;3.03;;;;;;;10.63;43.65;92800.06;5094027;28;20023;-71
2021/01/24 10:04:37;;;;;;;5.82;1.15;;;;;;;10.65;41.84;92805.06;5093792;28;20012;-71
2021/01/24 10:07:02;;;;;;;3.75;1.20;;;;;;;10.74;40.66;92802.25;5112187;28;20023;-71
2021/01/24 10:09:28;;;;;;;4.18;1.30;;;;;;;10.67;40.25;92792.16;5121832;27;20023;-71
2021/01/24 10:11:54;;;;;;;4.25;1.60;;;;;;;10.77;40.98;92812.25;5132341;27;20030;-71
2021/01/24 10:14:19;;;;;;;5.90;1.42;;;;;;;10.82;38.83;92799.41;5132584;27;20031;-72
2021/01/24 10:16:45;;;;;;;2.25;1.00;;;;;;;10.90;38.88;92807.63;5113947;27;20023;-71
2021/01/24 10:19:10;;;;;;;6.13;0.95;;;;;;;10.81;38.29;92815.78;5114387;27;20029;-71
2021/01/24 10:21:36;;;;;;;5.60;0.93;;;;;;;10.86;38.93;92809.41;5111194;27;20016;-72
2021/01/24 10:24:01;;;;;;;6.57;1.20;;;;;;;10.93;39.25;92812.25;5132373;27;20461;-72
2021/01/24 10:26:26;;;;;;;4.40;1.42;;;;;;;11.07;39.89;92799.31;5105720;28;20027;-72
2021/01/24 10:28:52;;;;;;;4.22;1.10;;;;;;;11.23;40.07;92799.34;5111525;28;20016;-72
2021/01/24 10:31:18;;;;;;;7.53;1.30;;;;;;;11.36;39.15;92789.38;5110526;28;20551;-70
2021/01/24 10:33:43;;;;;;;2.50;1.15;;;;;;;11.35;37.78;92795.81;5110969;27;20436;-70
2021/01/24 10:36:09;;;;;;;1.00;0.52;;;;;;;11.40;37.17;92780.34;5094218;28;20046;-70
2021/01/24 10:38:34;;;;;;;2.88;0.75;;;;;;;11.43;36.69;92792.22;5111801;28;20020;-71
2021/01/24 10:41:00;;;;;;;2.80;0.60;;;;;;;11.46;36.50;92794.22;5093145;28;20028;-70
2021/01/24 10:43:25;;;;;;;5.88;2.53;;;;;;;11.51;38.03;92790.50;5117755;27;20026;-70
2021/01/24 10:45:50;;;;;;;4.95;1.70;;;;;;;11.56;39.35;92798.22;5112756;27;20008;-71
2021/01/24 10:48:16;;;;;;;10.57;1.95;;;;;;;11.51;39.21;92787.84;5115883;27;20089;-71
2021/01/24 10:50:41;;;;;;;3.08;1.13;;;;;;;11.56;38.37;92791.03;5105894;28;20072;-70
2021/01/24 10:53:07;;;;;;;7.93;2.80;;;;;;;11.64;39.39;92783.94;5097242;27;20497;-71
2021/01/24 10:55:35;;;;;;;5.03;1.33;;;;;;;11.65;36.24;92766.81;5113682;27;20033;-70
2021/01/24 10:58:00;;;;;;;3.55;1.13;;;;;;;11.29;36.78;92757.94;5130631;27;20016;-71
2021/01/24 11:00:26;;;;;;;4.03;1.50;;;;;;;11.27;38.35;92762.09;5113548;27;20034;-71
2021/01/24 11:02:51;;;;;;;5.53;1.10;;;;;;;11.32;37.24;92770.63;5121629;27;20396;-71
2021/01/24 11:05:17;;;;;;;2.67;0.68;;;;;;;11.16;36.14;92761.84;5103487;27;20046;-71
2021/01/24 11:07:42;;;;;;;6.07;1.17;;;;;;;10.97;36.87;92747.28;5131706;27;20102;-71
2021/01/24 11:10:09;;;;;;;2.00;0.80;;;;;;;10.99;37.23;92753.03;5092614;28;20466;-71
2021/01/24 11:12:34;;;;;;;6.45;1.25;;;;;;;11.09;37.90;92748.31;5106818;27;20122;-71
2021/01/24 11:15:00;;;;;;;5.90;1.08;;;;;;;11.22;38.11;92768.47;5131491;27;20029;-71
2021/01/24 11:17:26;;;;;;;5.85;1.23;;;;;;;11.40;38.16;92769.66;5100185;28;20104;-71
2021/01/24 11:19:52;;;;;;;2.92;0.80;;;;;;;11.42;37.48;92754.09;5116197;27;20023;-71
2021/01/24 11:22:21;;;;;;;3.97;0.82;;;;;;;11.47;38.02;92747.72;5117160;27;20449;-71
2021/01/24 11:24:47;;;;;;;3.45;0.82;;;;;;;11.54;37.77;92763.13;5111037;28;20027;-71
2021/01/24 11:27:13;;;;;;;4.00;0.68;;;;;;;11.72;37.10;92750.97;5092266;28;20390;-71
2021/01/24 11:29:39;;;;;;;3.15;0.70;;;;;;;11.87;36.90;92753.97;5106439;27;20091;-71
2021/01/24 11:32:06;;;;;;;1.95;0.85;;;;;;;11.88;36.71;92760.84;5129251;27;20114;-70
2021/01/24 11:34:32;;;;;;;1.77;0.82;;;;;;;11.91;36.03;92744.19;5119315;27;20023;-70
2021/01/24 11:36:57;;;;;;;3.75;0.90;;;;;;;11.92;35.73;92757.16;5112796;27;20108;-70
2021/01/24 11:39:23;;;;;;;6.55;0.75;;;;;;;11.95;36.05;92751.13;5129628;27;20039;-70